createdAt,value
2023-05-15T00:01:50.254Z,14.32
2023-05-15T00:11:54.278Z,14.27
2023-05-15T00:21:56.878Z,14.12
2023-05-15T00:32:00.848Z,13.86
2023-05-15T00:42:04.798Z,13.83
2023-05-15T00:52:09.118Z,13.78
2023-05-15T01:02:12.389Z,13.67
2023-05-15T01:12:17.880Z,13.64
2023-05-15T01:22:36.320Z,13.54
2023-05-15T01:32:44.627Z,12.88
2023-05-15T01:42:54.984Z,12.82
2023-05-15T01:53:01.621Z,12.89
2023-05-15T02:03:06.836Z,12.93
2023-05-15T02:13:11.250Z,13.05
2023-05-15T02:23:13.849Z,12.97
2023-05-15T02:33:29.192Z,12.86
2023-05-15T02:43:32.236Z,12.72
2023-05-15T02:53:40.925Z,12.73
2023-05-15T03:03:43.547Z,12.59
2023-05-15T03:13:47.507Z,12.75
2023-05-15T03:23:50.171Z,12.59
2023-05-15T03:33:54.163Z,12.45
2023-05-15T03:43:56.779Z,12.61
2023-05-15T03:54:00.768Z,12.53
2023-05-15T04:04:03.733Z,12.23
2023-05-15T04:14:07.673Z,12.07
2023-05-15T04:24:10.280Z,12.19
2023-05-15T04:34:14.283Z,11.92
2023-05-15T04:44:16.903Z,12.15
2023-05-15T04:54:20.921Z,12.23
2023-05-15T05:04:23.512Z,12.34
2023-05-15T05:14:27.807Z,12.45
2023-05-15T05:24:30.542Z,12.65
2023-05-15T05:34:34.485Z,12.65
2023-05-15T05:44:38.186Z,12.53
2023-05-15T05:54:42.191Z,12.19
2023-05-15T06:04:45.925Z,12.59
2023-05-15T06:14:50.051Z,12.75
2023-05-15T06:24:52.675Z,12.76
2023-05-15T06:34:56.696Z,12.55
2023-05-15T06:44:59.492Z,12.67
2023-05-15T06:55:03.476Z,12.69
2023-05-15T07:05:07.016Z,12.97
2023-05-15T07:15:11.830Z,12.91
2023-05-15T07:25:16.893Z,13.23
2023-05-15T07:35:21.114Z,13.14
2023-05-15T07:45:24.054Z,13.32
2023-05-15T07:55:28.284Z,13.26
2023-05-15T08:05:30.958Z,13.26
2023-05-15T08:15:34.981Z,13.30
2023-05-15T08:25:37.678Z,13.60
2023-05-15T08:35:41.628Z,14.18
2023-05-15T08:45:44.477Z,14.34
2023-05-15T08:55:48.640Z,15.14
2023-05-15T09:05:53.814Z,15.78
2023-05-15T09:15:57.863Z,15.80
2023-05-15T09:26:00.609Z,16.48
2023-05-15T09:36:06.339Z,16.79
2023-05-15T09:46:12.129Z,17.15
2023-05-15T09:56:16.755Z,17.55
2023-05-15T10:06:19.790Z,17.39
2023-05-15T10:16:23.984Z,18.25
2023-05-15T10:26:34.093Z,18.46
2023-05-15T10:36:39.188Z,18.68
2023-05-15T10:46:42.098Z,19.31
2023-05-15T10:56:46.099Z,19.40
2023-05-15T11:06:49.920Z,20.16
2023-05-15T11:17:04.993Z,20.04
2023-05-15T11:27:07.766Z,21.97
2023-05-15T11:37:18.650Z,29.37
2023-05-15T11:47:22.430Z,29.90
2023-05-15T11:57:26.406Z,32.28
2023-05-15T12:07:29.930Z,30.62
2023-05-15T12:17:34.058Z,29.68
2023-05-15T12:27:37.405Z,29.93
2023-05-15T12:37:42.903Z,30.27
2023-05-15T12:47:46.864Z,28.78
2023-05-15T12:57:51.277Z,30.47
2023-05-15T13:07:54.341Z,28.35
2023-05-15T13:18:01.766Z,27.32
2023-05-15T13:28:05.776Z,26.86
2023-05-15T13:38:11.715Z,26.92
2023-05-15T13:48:14.681Z,25.95
2023-05-15T13:58:18.678Z,25.77
2023-05-15T14:08:21.435Z,24.61
2023-05-15T14:18:26.256Z,23.11
2023-05-15T14:28:28.880Z,23.38
2023-05-15T14:38:33.391Z,23.09
2023-05-15T14:48:35.988Z,22.78
2023-05-15T14:58:39.997Z,22.52
2023-05-15T15:08:42.752Z,21.49
2023-05-15T15:18:46.830Z,21.15
2023-05-15T15:28:49.427Z,21.82
2023-05-15T15:38:53.636Z,21.76
2023-05-15T15:48:56.205Z,20.47
2023-05-15T15:59:00.186Z,19.70
2023-05-15T16:09:03.532Z,18.74
2023-05-15T16:19:07.618Z,17.29
2023-05-15T16:29:10.284Z,16.65
2023-05-15T16:39:14.273Z,15.85
2023-05-15T16:49:16.975Z,15.54
2023-05-15T16:59:21.299Z,15.18
2023-05-15T17:09:23.897Z,14.86
2023-05-15T17:19:27.820Z,14.62
2023-05-15T17:29:30.422Z,14.27
2023-05-15T17:39:34.390Z,14.23
2023-05-15T17:49:37.151Z,14.20
2023-05-15T17:59:41.102Z,13.92
2023-05-15T18:09:43.733Z,13.89
2023-05-15T18:19:47.732Z,13.58
2023-05-15T18:29:51.496Z,13.61
2023-05-15T18:39:56.913Z,13.08
2023-05-15T18:49:59.540Z,13.23
2023-05-15T19:00:03.998Z,13.16
2023-05-15T19:10:08.163Z,12.99
2023-05-15T19:20:12.874Z,13.11
2023-05-15T19:30:15.770Z,12.96
2023-05-15T19:40:20.043Z,13.09
2023-05-15T19:50:22.680Z,12.76
2023-05-15T20:00:27.179Z,12.63
2023-05-15T20:10:30.042Z,12.43
2023-05-15T20:20:34.063Z,12.34
2023-05-15T20:30:36.708Z,12.18
2023-05-15T20:40:40.809Z,12.25
2023-05-15T20:50:43.472Z,12.23
2023-05-15T21:00:47.687Z,12.11
2023-05-15T21:10:52.980Z,12.28
2023-05-15T21:20:56.998Z,12.20
2023-05-15T21:31:06.068Z,12.21
2023-05-15T21:41:10.110Z,12.27
2023-05-15T21:51:12.774Z,12.13
2023-05-15T22:01:17.609Z,11.88
2023-05-15T22:11:20.689Z,11.71
2023-05-15T22:21:25.124Z,11.77
2023-05-15T22:31:29.385Z,11.86
2023-05-15T22:41:33.609Z,11.83
2023-05-15T22:51:36.966Z,11.77
2023-05-15T23:01:41.210Z,11.75
2023-05-15T23:11:43.970Z,11.66
2023-05-15T23:21:47.989Z,11.61
2023-05-15T23:31:51.038Z,11.44
2023-05-15T23:41:55.533Z,11.54
2023-05-15T23:51:58.139Z,11.34
